Time,TemperatureF,DewpointF,PressureIn,WindDirection,WindDirectionDegrees,WindSpeedMPH,WindSpeedGustMPH,Humidity,HourlyPrecipIn,Conditions,Clouds,dailyrainin,SoftwareType,DateUTC
2013-06-29 00:07:00,61.2,60.6,29.46,ESE,112,0.0,2.0,98,0.04,,,0.79,WeatherLinkWUIModule,2013-06-29 04:07:00,
2013-06-29 00:17:00,61.2,60.6,29.46,East,101,0.0,2.0,98,0.04,,,0.79,WeatherLinkWUIModule,2013-06-29 04:17:00,
2013-06-29 00:27:00,61.3,60.7,29.45,East,101,0.0,2.0,98,0.00,,,0.79,WeatherLinkWUIModule,2013-06-29 04:27:00,
2013-06-29 00:37:00,61.3,60.7,29.45,ESE,118,1.0,5.0,98,0.00,,,0.02,WeatherLinkWUIModule,2013-06-29 04:37:00,
2013-06-29 00:47:00,61.4,60.8,29.45,ESE,118,0.0,5.0,98,0.04,,,0.02,WeatherLinkWUIModule,2013-06-29 04:47:00,
2013-06-29 00:57:00,61.4,60.8,29.45,ESE,118,0.0,5.0,98,0.12,,,0.02,WeatherLinkWUIModule,2013-06-29 04:57:00,
2013-06-29 01:07:00,61.4,60.8,29.44,ESE,118,0.0,4.0,98,0.07,,,0.06,WeatherLinkWUIModule,2013-06-29 05:07:00,
2013-06-29 01:17:00,61.4,60.8,29.44,ESE,118,0.0,4.0,98,0.05,,,0.06,WeatherLinkWUIModule,2013-06-29 05:17:00,
2013-06-29 01:27:00,61.4,60.8,29.44,ESE,118,0.0,4.0,98,0.08,,,0.06,WeatherLinkWUIModule,2013-06-29 05:27:00,
2013-06-29 01:37:00,61.4,60.8,29.44,ESE,118,0.0,3.0,98,0.12,,,0.09,WeatherLinkWUIModule,2013-06-29 05:37:00,
2013-06-29 01:47:00,61.4,60.8,29.45,ESE,118,0.0,3.0,98,0.18,,,0.09,WeatherLinkWUIModule,2013-06-29 05:47:00,
2013-06-29 01:57:00,61.4,60.8,29.44,ESE,118,0.0,3.0,98,0.23,,,0.09,WeatherLinkWUIModule,2013-06-29 05:57:00,
2013-06-29 02:07:00,61.4,60.8,29.44,ESE,118,0.0,2.0,98,0.16,,,0.20,WeatherLinkWUIModule,2013-06-29 06:07:00,
2013-06-29 02:17:00,61.3,60.7,29.44,ESE,118,0.0,2.0,98,0.09,,,0.20,WeatherLinkWUIModule,2013-06-29 06:17:00,
2013-06-29 02:27:00,61.3,60.7,29.44,ESE,118,0.0,2.0,98,0.10,,,0.20,WeatherLinkWUIModule,2013-06-29 06:27:00,
2013-06-29 02:37:00,61.3,60.7,29.44,ESE,118,0.0,2.0,98,0.06,,,0.26,WeatherLinkWUIModule,2013-06-29 06:37:00,
2013-06-29 02:47:00,61.3,61.0,29.44,ESE,118,0.0,2.0,99,0.04,,,0.26,WeatherLinkWUIModule,2013-06-29 06:47:00,
2013-06-29 02:57:00,61.4,61.1,29.44,ESE,118,0.0,2.0,99,0.00,,,0.26,WeatherLinkWUIModule,2013-06-29 06:57:00,
2013-06-29 03:07:00,61.4,61.1,29.43,ESE,118,0.0,3.0,99,0.00,,,0.28,WeatherLinkWUIModule,2013-06-29 07:07:00,
2013-06-29 03:17:00,61.3,60.7,29.43,ESE,118,0.0,3.0,98,0.00,,,0.28,WeatherLinkWUIModule,2013-06-29 07:17:00,
2013-06-29 03:27:00,61.3,61.0,29.43,ESE,118,1.0,3.0,99,0.00,,,0.28,WeatherLinkWUIModule,2013-06-29 07:27:00,
2013-06-29 03:37:00,61.3,61.0,29.43,ESE,118,0.0,3.0,99,0.00,,,0.28,WeatherLinkWUIModule,2013-06-29 07:37:00,
2013-06-29 03:47:00,61.3,61.0,29.43,ESE,118,0.0,3.0,99,0.00,,,0.28,WeatherLinkWUIModule,2013-06-29 07:47:00,
2013-06-29 03:57:00,61.4,61.1,29.43,ESE,118,0.0,3.0,99,0.00,,,0.28,WeatherLinkWUIModule,2013-06-29 07:57:00,
2013-06-29 04:07:00,61.4,61.1,29.43,ESE,118,0.0,0.0,99,0.00,,,0.28,WeatherLinkWUIModule,2013-06-29 08:07:00,
2013-06-29 04:17:00,61.4,61.1,29.43,ESE,118,0.0,0.0,99,0.00,,,0.28,WeatherLinkWUIModule,2013-06-29 08:17:00,
2013-06-29 04:27:00,61.4,61.1,29.43,ESE,118,0.0,0.0,99,0.00,,,0.28,WeatherLinkWUIModule,2013-06-29 08:27:00,
2013-06-29 04:37:00,61.4,61.1,29.43,ESE,118,0.0,1.0,99,0.00,,,0.28,WeatherLinkWUIModule,2013-06-29 08:37:00,
2013-06-29 04:47:00,61.4,61.1,29.43,ESE,118,0.0,1.0,99,0.00,,,0.28,WeatherLinkWUIModule,2013-06-29 08:47:00,
2013-06-29 04:57:00,61.3,61.0,29.43,ESE,118,0.0,1.0,99,0.00,,,0.28,WeatherLinkWUIModule,2013-06-29 08:57:00,
2013-06-29 05:07:00,61.4,61.1,29.43,ESE,118,0.0,0.0,99,0.00,,,0.28,WeatherLinkWUIModule,2013-06-29 09:07:00,
2013-06-29 05:17:00,61.4,61.1,29.43,ESE,118,0.0,0.0,99,0.00,,,0.28,WeatherLinkWUIModule,2013-06-29 09:17:00,
2013-06-29 05:27:00,61.4,61.1,29.43,ESE,118,0.0,0.0,99,0.00,,,0.28,WeatherLinkWUIModule,2013-06-29 09:27:00,
2013-06-29 05:37:00,61.5,61.2,29.44,ESE,118,0.0,1.0,99,0.00,,,0.28,WeatherLinkWUIModule,2013-06-29 09:37:00,
2013-06-29 05:47:00,61.5,61.2,29.44,ESE,118,0.0,1.0,99,0.00,,,0.28,WeatherLinkWUIModule,2013-06-29 09:47:00,
2013-06-29 05:57:00,61.5,61.2,29.44,ESE,118,0.0,1.0,99,0.00,,,0.28,WeatherLinkWUIModule,2013-06-29 09:57:00,
2013-06-29 06:07:00,61.5,61.2,29.44,ESE,118,0.0,2.0,99,0.00,,,0.28,WeatherLinkWUIModule,2013-06-29 10:07:00,
2013-06-29 06:17:00,61.5,61.2,29.44,ESE,118,2.0,2.0,99,0.00,,,0.28,WeatherLinkWUIModule,2013-06-29 10:17:00,
2013-06-29 06:27:00,61.6,61.3,29.45,ESE,118,0.0,2.0,99,0.00,,,0.28,WeatherLinkWUIModule,2013-06-29 10:27:00,
2013-06-29 06:37:00,61.7,61.4,29.45,ESE,118,0.0,2.0,99,1.10,,,0.30,WeatherLinkWUIModule,2013-06-29 10:37:00,
2013-06-29 06:47:00,61.6,61.3,29.45,ESE,118,0.0,2.0,99,0.17,,,0.30,WeatherLinkWUIModule,2013-06-29 10:47:00,
2013-06-29 06:57:00,61.5,61.2,29.45,ESE,118,0.0,2.0,99,0.11,,,0.30,WeatherLinkWUIModule,2013-06-29 10:57:00,
2013-06-29 07:07:00,61.6,61.3,29.45,ESE,118,0.0,1.0,99,0.05,,,0.44,WeatherLinkWUIModule,2013-06-29 11:07:00,
2013-06-29 07:17:00,61.6,61.3,29.45,ESE,118,0.0,1.0,99,0.04,,,0.44,WeatherLinkWUIModule,2013-06-29 11:17:00,
2013-06-29 07:27:00,61.8,61.5,29.45,ESE,118,0.0,1.0,99,0.00,,,0.44,WeatherLinkWUIModule,2013-06-29 11:27:00,
2013-06-29 07:37:00,61.8,61.5,29.46,ESE,118,0.0,1.0,99,0.00,,,0.45,WeatherLinkWUIModule,2013-06-29 11:37:00,
2013-06-29 07:47:00,61.8,61.5,29.46,ESE,118,0.0,1.0,99,0.09,,,0.45,WeatherLinkWUIModule,2013-06-29 11:47:00,
2013-06-29 07:57:00,62.0,61.7,29.45,ESE,118,0.0,1.0,99,0.12,,,0.45,WeatherLinkWUIModule,2013-06-29 11:57:00,
2013-06-29 08:07:00,62.0,61.7,29.45,ESE,118,0.0,2.0,99,0.04,,,0.49,WeatherLinkWUIModule,2013-06-29 12:07:00,
2013-06-29 08:17:00,62.2,61.9,29.46,ESE,118,0.0,2.0,99,0.08,,,0.49,WeatherLinkWUIModule,2013-06-29 12:17:00,
2013-06-29 08:27:00,62.3,62.0,29.46,ESE,118,0.0,2.0,99,0.06,,,0.49,WeatherLinkWUIModule,2013-06-29 12:27:00,
2013-06-29 08:37:00,62.3,62.0,29.46,ESE,118,0.0,2.0,99,0.00,,,0.51,WeatherLinkWUIModule,2013-06-29 12:37:00,
2013-06-29 08:47:00,62.4,62.1,29.46,ESE,118,1.0,2.0,99,0.00,,,0.51,WeatherLinkWUIModule,2013-06-29 12:47:00,
2013-06-29 08:57:00,62.7,62.4,29.47,ESE,106,1.0,2.0,99,0.08,,,0.51,WeatherLinkWUIModule,2013-06-29 12:57:00,
2013-06-29 09:07:00,62.8,62.5,29.47,East,99,0.0,4.0,99,0.10,,,0.53,WeatherLinkWUIModule,2013-06-29 13:07:00,
2013-06-29 09:17:00,63.0,62.7,29.47,East,99,0.0,4.0,99,0.04,,,0.53,WeatherLinkWUIModule,2013-06-29 13:17:00,
2013-06-29 09:27:00,63.1,62.8,29.47,East,99,1.0,4.0,99,0.00,,,0.53,WeatherLinkWUIModule,2013-06-29 13:27:00,
2013-06-29 09:37:00,63.0,62.4,29.47,ESE,102,0.0,5.0,98,0.00,,,0.54,WeatherLinkWUIModule,2013-06-29 13:37:00,
2013-06-29 09:47:00,63.2,62.6,29.47,ESE,102,0.0,5.0,98,0.13,,,0.54,WeatherLinkWUIModule,2013-06-29 13:47:00,
2013-06-29 09:57:00,63.3,62.7,29.47,ESE,103,1.0,5.0,98,0.15,,,0.54,WeatherLinkWUIModule,2013-06-29 13:57:00,
2013-06-29 10:07:00,63.4,62.8,29.47,ESE,103,0.0,3.0,98,0.07,,,0.58,WeatherLinkWUIModule,2013-06-29 14:07:00,
2013-06-29 10:17:00,63.7,63.4,29.47,ESE,103,0.0,3.0,99,0.11,,,0.58,WeatherLinkWUIModule,2013-06-29 14:17:00,
2013-06-29 10:27:00,63.8,63.2,29.47,ESE,119,0.0,3.0,98,0.08,,,0.58,WeatherLinkWUIModule,2013-06-29 14:27:00,
2013-06-29 10:37:00,64.3,63.7,29.47,East,92,3.0,3.0,98,0.00,,,0.62,WeatherLinkWUIModule,2013-06-29 14:37:00,
2013-06-29 10:47:00,64.5,63.9,29.47,ESE,119,0.0,3.0,98,0.00,,,0.62,WeatherLinkWUIModule,2013-06-29 14:47:00,
2013-06-29 10:57:00,64.8,63.9,29.47,ESE,113,1.0,3.0,97,0.00,,,0.62,WeatherLinkWUIModule,2013-06-29 14:57:00,
2013-06-29 11:07:00,65.6,64.7,29.47,ESE,114,2.0,4.0,97,0.00,,,0.63,WeatherLinkWUIModule,2013-06-29 15:07:00,
2013-06-29 11:17:00,65.9,64.4,29.47,ESE,114,1.0,4.0,95,0.00,,,0.63,WeatherLinkWUIModule,2013-06-29 15:17:00,
2013-06-29 11:27:00,66.7,65.2,29.47,ESE,114,1.0,4.0,95,0.00,,,0.63,WeatherLinkWUIModule,2013-06-29 15:27:00,
2013-06-29 11:37:00,67.1,65.3,29.47,ESE,106,0.0,4.0,94,0.00,,,0.63,WeatherLinkWUIModule,2013-06-29 15:37:00,
2013-06-29 11:47:00,68.0,65.9,29.47,East,82,5.0,5.0,93,0.00,,,0.63,WeatherLinkWUIModule,2013-06-29 15:47:00,
2013-06-29 11:57:00,67.8,65.4,29.48,East,100,0.0,4.0,92,0.00,,,0.63,WeatherLinkWUIModule,2013-06-29 15:57:00,
2013-06-29 12:07:00,67.4,65.3,29.48,SE,145,2.0,7.0,93,0.00,,,0.63,WeatherLinkWUIModule,2013-06-29 16:07:00,
2013-06-29 12:17:00,68.0,65.9,29.48,SE,136,1.0,7.0,93,0.00,,,0.63,WeatherLinkWUIModule,2013-06-29 16:17:00,
2013-06-29 12:27:00,68.3,65.3,29.48,ESE,114,3.0,7.0,90,0.00,,,0.63,WeatherLinkWUIModule,2013-06-29 16:27:00,
2013-06-29 12:37:00,69.5,65.8,29.48,West,263,2.0,7.0,88,0.00,,,0.63,WeatherLinkWUIModule,2013-06-29 16:37:00,
2013-06-29 12:47:00,70.2,65.8,29.48,ESE,111,3.0,7.0,86,0.00,,,0.63,WeatherLinkWUIModule,2013-06-29 16:47:00,
2013-06-29 12:57:00,70.1,65.0,29.48,East,101,1.0,7.0,84,0.00,,,0.63,WeatherLinkWUIModule,2013-06-29 16:57:00,
2013-06-29 13:07:00,70.6,67.5,29.48,ESE,103,0.0,6.0,90,0.00,,,0.63,WeatherLinkWUIModule,2013-06-29 17:07:00,
2013-06-29 13:17:00,71.1,65.0,29.48,ESE,115,3.0,6.0,81,0.00,,,0.63,WeatherLinkWUIModule,2013-06-29 17:17:00,
2013-06-29 13:27:00,71.4,65.6,29.48,ESE,117,1.0,6.0,82,0.00,,,0.63,WeatherLinkWUIModule,2013-06-29 17:27:00,
2013-06-29 13:37:00,70.4,64.6,29.48,East,100,2.0,8.0,82,0.00,,,0.63,WeatherLinkWUIModule,2013-06-29 17:37:00,
2013-06-29 13:47:00,72.0,65.5,29.48,WSW,239,0.0,8.0,80,0.00,,,0.63,WeatherLinkWUIModule,2013-06-29 17:47:00,
2013-06-29 13:57:00,72.4,65.9,29.48,East,92,3.0,8.0,80,0.00,,,0.63,WeatherLinkWUIModule,2013-06-29 17:57:00,
2013-06-29 14:07:00,71.3,65.5,29.48,ESE,121,1.0,9.0,82,0.00,,,0.63,WeatherLinkWUIModule,2013-06-29 18:07:00,
2013-06-29 14:17:00,72.9,66.7,29.49,West,266,3.0,9.0,81,0.00,,,0.63,WeatherLinkWUIModule,2013-06-29 18:17:00,
2013-06-29 14:27:00,72.7,65.1,29.49,East,92,5.0,9.0,77,0.00,,,0.63,WeatherLinkWUIModule,2013-06-29 18:27:00,
2013-06-29 14:37:00,72.3,66.1,29.50,ESE,104,3.0,8.0,81,0.00,,,0.63,WeatherLinkWUIModule,2013-06-29 18:37:00,
2013-06-29 14:47:00,73.1,65.5,29.49,East,98,2.0,8.0,77,0.00,,,0.63,WeatherLinkWUIModule,2013-06-29 18:47:00,
2013-06-29 14:57:00,71.9,65.8,29.50,WNW,291,2.0,8.0,81,0.00,,,0.63,WeatherLinkWUIModule,2013-06-29 18:57:00,
2013-06-29 15:07:00,72.1,66.3,29.50,South,173,1.0,9.0,82,0.00,,,0.63,WeatherLinkWUIModule,2013-06-29 19:07:00,
2013-06-29 15:17:00,72.8,66.6,29.50,East,90,0.0,9.0,81,0.00,,,0.63,WeatherLinkWUIModule,2013-06-29 19:17:00,
2013-06-29 15:27:00,72.3,66.1,29.50,East,80,0.0,9.0,81,0.00,,,0.63,WeatherLinkWUIModule,2013-06-29 19:27:00,
2013-06-29 15:37:00,72.4,66.6,29.51,South,190,0.0,9.0,82,0.00,,,0.63,WeatherLinkWUIModule,2013-06-29 19:37:00,
2013-06-29 15:47:00,73.4,66.9,29.51,East,101,1.0,9.0,80,0.00,,,0.63,WeatherLinkWUIModule,2013-06-29 19:47:00,
2013-06-29 15:57:00,73.6,65.6,29.51,East,79,0.0,9.0,76,0.00,,,0.63,WeatherLinkWUIModule,2013-06-29 19:57:00,
2013-06-29 16:07:00,73.2,65.2,29.52,WNW,294,3.0,11.0,76,0.00,,,0.63,WeatherLinkWUIModule,2013-06-29 20:07:00,
2013-06-29 16:17:00,73.6,66.7,29.52,West,281,0.0,11.0,79,0.00,,,0.63,WeatherLinkWUIModule,2013-06-29 20:17:00,
2013-06-29 16:27:00,74.1,66.0,29.52,SW,231,1.0,11.0,76,0.00,,,0.63,WeatherLinkWUIModule,2013-06-29 20:27:00,
2013-06-29 16:37:00,73.9,65.5,29.51,ENE,73,0.0,7.0,75,0.00,,,0.63,WeatherLinkWUIModule,2013-06-29 20:37:00,
2013-06-29 16:47:00,74.6,65.4,29.51,South,169,0.0,7.0,73,0.00,,,0.63,WeatherLinkWUIModule,2013-06-29 20:47:00,
2013-06-29 16:57:00,75.2,65.1,29.51,SE,126,4.0,7.0,71,0.00,,,0.63,WeatherLinkWUIModule,2013-06-29 20:57:00,
2013-06-29 17:07:00,74.7,64.7,29.51,East,94,0.0,7.0,71,0.00,,,0.63,WeatherLinkWUIModule,2013-06-29 21:07:00,
2013-06-29 17:17:00,75.5,66.2,29.52,SW,227,3.0,7.0,73,0.00,,,0.63,WeatherLinkWUIModule,2013-06-29 21:17:00,
2013-06-29 17:27:00,74.7,67.0,29.52,SE,143,0.0,7.0,77,0.00,,,0.63,WeatherLinkWUIModule,2013-06-29 21:27:00,
2013-06-29 17:37:00,75.1,64.6,29.52,WSW,251,2.0,7.0,70,0.00,,,0.63,WeatherLinkWUIModule,2013-06-29 21:37:00,
2013-06-29 17:47:00,74.2,65.4,29.52,WSW,253,0.0,7.0,74,0.00,,,0.63,WeatherLinkWUIModule,2013-06-29 21:47:00,
2013-06-29 17:57:00,73.9,64.3,29.52,WSW,253,0.0,7.0,72,0.00,,,0.63,WeatherLinkWUIModule,2013-06-29 21:57:00,
2013-06-29 18:07:00,74.4,64.8,29.52,WSW,253,0.0,5.0,72,0.00,,,0.63,WeatherLinkWUIModule,2013-06-29 22:07:00,
2013-06-29 18:17:00,75.1,63.8,29.53,WNW,285,0.0,5.0,68,0.00,,,0.63,WeatherLinkWUIModule,2013-06-29 22:17:00,
2013-06-29 18:27:00,74.6,63.8,29.53,West,264,0.0,5.0,69,0.00,,,0.63,WeatherLinkWUIModule,2013-06-29 22:27:00,
2013-06-29 18:37:00,73.9,64.7,29.54,West,281,0.0,5.0,73,0.00,,,0.63,WeatherLinkWUIModule,2013-06-29 22:37:00,
2013-06-29 18:47:00,73.2,65.6,29.54,West,281,0.0,5.0,77,0.00,,,0.63,WeatherLinkWUIModule,2013-06-29 22:47:00,
2013-06-29 18:57:00,72.9,65.6,29.54,ESE,115,3.0,5.0,78,0.00,,,0.63,WeatherLinkWUIModule,2013-06-29 22:57:00,
2013-06-29 19:07:00,71.7,65.6,29.55,ENE,64,0.0,7.0,81,0.00,,,0.63,WeatherLinkWUIModule,2013-06-29 23:07:00,
2013-06-29 19:17:00,71.4,65.3,29.55,ESE,115,0.0,7.0,81,0.00,,,0.63,WeatherLinkWUIModule,2013-06-29 23:17:00,
2013-06-29 19:27:00,71.0,65.6,29.56,ESE,107,0.0,7.0,83,0.00,,,0.63,WeatherLinkWUIModule,2013-06-29 23:27:00,
2013-06-29 19:37:00,70.7,65.6,29.56,SW,216,0.0,5.0,84,0.00,,,0.63,WeatherLinkWUIModule,2013-06-29 23:37:00,
2013-06-29 19:47:00,70.9,65.1,29.56,SSW,196,0.0,5.0,82,0.00,,,0.63,WeatherLinkWUIModule,2013-06-29 23:47:00,
2013-06-29 19:57:00,70.8,65.0,29.57,ESE,109,0.0,5.0,82,0.00,,,0.63,WeatherLinkWUIModule,2013-06-29 23:57:00,
2013-06-29 20:07:00,70.1,65.0,29.57,ESE,109,0.0,3.0,84,0.00,,,0.63,WeatherLinkWUIModule,2013-06-30 00:07:00,
2013-06-29 20:17:00,69.4,64.7,29.56,ESE,109,0.0,3.0,85,0.00,,,0.63,WeatherLinkWUIModule,2013-06-30 00:17:00,
2013-06-29 20:27:00,68.6,64.6,29.56,ESE,109,0.0,3.0,87,0.00,,,0.63,WeatherLinkWUIModule,2013-06-30 00:27:00,
2013-06-29 20:37:00,67.8,64.4,29.56,ESE,109,0.0,1.0,89,0.00,,,0.63,WeatherLinkWUIModule,2013-06-30 00:37:00,
2013-06-29 20:47:00,67.0,64.3,29.56,ESE,109,0.0,1.0,91,0.00,,,0.63,WeatherLinkWUIModule,2013-06-30 00:47:00,
2013-06-29 20:57:00,66.3,64.2,29.57,ESE,109,0.0,1.0,93,0.00,,,0.63,WeatherLinkWUIModule,2013-06-30 00:57:00,
2013-06-29 21:07:00,65.7,63.6,29.57,ESE,109,0.0,0.0,93,0.00,,,0.63,WeatherLinkWUIModule,2013-06-30 01:07:00,
2013-06-29 21:17:00,65.3,63.8,29.57,ESE,109,0.0,0.0,95,0.00,,,0.63,WeatherLinkWUIModule,2013-06-30 01:17:00,
2013-06-29 21:27:00,64.9,63.4,29.58,ESE,109,0.0,0.0,95,0.00,,,0.63,WeatherLinkWUIModule,2013-06-30 01:27:00,
2013-06-29 21:37:00,64.5,63.0,29.59,ESE,109,0.0,0.0,95,0.00,,,0.63,WeatherLinkWUIModule,2013-06-30 01:37:00,
2013-06-29 21:47:00,64.7,63.5,29.59,ESE,109,0.0,0.0,96,0.00,,,0.63,WeatherLinkWUIModule,2013-06-30 01:47:00,
2013-06-29 21:57:00,65.2,64.0,29.60,ESE,109,0.0,0.0,96,0.00,,,0.63,WeatherLinkWUIModule,2013-06-30 01:57:00,
2013-06-29 22:07:00,65.2,64.0,29.60,ESE,109,0.0,0.0,96,0.00,,,0.63,WeatherLinkWUIModule,2013-06-30 02:07:00,
2013-06-29 22:17:00,65.2,63.7,29.60,ESE,109,0.0,0.0,95,0.00,,,0.63,WeatherLinkWUIModule,2013-06-30 02:17:00,
2013-06-29 22:27:00,65.1,63.6,29.61,ESE,109,0.0,0.0,95,0.00,,,0.63,WeatherLinkWUIModule,2013-06-30 02:27:00,
2013-06-29 22:37:00,65.3,64.1,29.61,ESE,109,0.0,0.0,96,0.00,,,0.63,WeatherLinkWUIModule,2013-06-30 02:37:00,
2013-06-29 22:47:00,65.4,63.9,29.61,ESE,109,0.0,0.0,95,0.00,,,0.63,WeatherLinkWUIModule,2013-06-30 02:47:00,
2013-06-29 22:57:00,65.6,64.4,29.61,ESE,109,0.0,0.0,96,0.00,,,0.63,WeatherLinkWUIModule,2013-06-30 02:57:00,
2013-06-29 23:07:00,65.4,63.6,29.61,ESE,109,0.0,3.0,94,0.00,,,0.63,WeatherLinkWUIModule,2013-06-30 03:07:00,
2013-06-29 23:17:00,64.9,63.1,29.61,ESE,109,0.0,3.0,94,0.00,,,0.63,WeatherLinkWUIModule,2013-06-30 03:17:00,
2013-06-29 23:27:00,64.4,62.9,29.62,ESE,109,0.0,3.0,95,0.00,,,0.63,WeatherLinkWUIModule,2013-06-30 03:27:00,
2013-06-29 23:37:00,64.1,62.6,29.62,ESE,109,0.0,0.0,95,0.00,,,0.63,WeatherLinkWUIModule,2013-06-30 03:37:00,
2013-06-29 23:47:00,64.1,62.9,29.63,ESE,109,0.0,0.0,96,0.00,,,0.63,WeatherLinkWUIModule,2013-06-30 03:47:00,
2013-06-29 23:57:00,64.1,62.9,29.62,ESE,109,0.0,0.0,96,0.00,,,0.63,WeatherLinkWUIModule,2013-06-30 03:57:00,